sensor_id;sensor_type;location;lat;lon;timestamp;P1;durP1;ratioP1;P2;durP2;ratioP2
68870;SDS011;55906;52.278;6.808;2022-11-20T00:00:47;21.83;;;11.93;;
68870;SDS011;55906;52.278;6.808;2022-11-20T00:03:13;15.68;;;10.30;;
68870;SDS011;55906;52.278;6.808;2022-11-20T00:05:40;16.85;;;10.10;;
68870;SDS011;55906;52.278;6.808;2022-11-20T00:08:07;14.15;;;10.10;;
68870;SDS011;55906;52.278;6.808;2022-11-20T00:10:35;17.35;;;10.00;;
68870;SDS011;55906;52.278;6.808;2022-11-20T00:13:02;17.40;;;10.23;;
68870;SDS011;55906;52.278;6.808;2022-11-20T00:15:29;13.45;;;8.85;;
68870;SDS011;55906;52.278;6.808;2022-11-20T00:17:57;15.43;;;9.57;;
68870;SDS011;55906;52.278;6.808;2022-11-20T00:20:23;15.38;;;9.93;;
68870;SDS011;55906;52.278;6.808;2022-11-20T00:22:50;15.68;;;10.02;;
68870;SDS011;55906;52.278;6.808;2022-11-20T00:25:16;14.77;;;9.60;;
68870;SDS011;55906;52.278;6.808;2022-11-20T00:27:43;16.17;;;9.40;;
68870;SDS011;55906;52.278;6.808;2022-11-20T00:30:10;15.93;;;10.10;;
68870;SDS011;55906;52.278;6.808;2022-11-20T00:32:36;17.13;;;10.38;;
68870;SDS011;55906;52.278;6.808;2022-11-20T00:35:05;17.75;;;11.15;;
68870;SDS011;55906;52.278;6.808;2022-11-20T00:37:32;15.85;;;10.63;;
68870;SDS011;55906;52.278;6.808;2022-11-20T00:40:00;18.17;;;11.00;;
68870;SDS011;55906;52.278;6.808;2022-11-20T00:42:27;17.97;;;10.90;;
68870;SDS011;55906;52.278;6.808;2022-11-20T00:44:53;20.40;;;11.15;;
68870;SDS011;55906;52.278;6.808;2022-11-20T00:47:20;18.38;;;11.88;;
68870;SDS011;55906;52.278;6.808;2022-11-20T00:49:47;22.57;;;12.07;;
68870;SDS011;55906;52.278;6.808;2022-11-20T00:52:14;19.73;;;11.60;;
68870;SDS011;55906;52.278;6.808;2022-11-20T00:54:41;22.63;;;11.43;;
68870;SDS011;55906;52.278;6.808;2022-11-20T00:57:08;21.02;;;12.52;;
68870;SDS011;55906;52.278;6.808;2022-11-20T00:59:34;17.65;;;10.05;;
68870;SDS011;55906;52.278;6.808;2022-11-20T01:02:01;16.58;;;10.95;;
68870;SDS011;55906;52.278;6.808;2022-11-20T01:04:27;19.25;;;12.27;;
68870;SDS011;55906;52.278;6.808;2022-11-20T01:06:54;17.43;;;11.63;;
68870;SDS011;55906;52.278;6.808;2022-11-20T01:09:22;17.30;;;10.18;;
68870;SDS011;55906;52.278;6.808;2022-11-20T01:11:48;20.23;;;11.20;;
68870;SDS011;55906;52.278;6.808;2022-11-20T01:14:16;19.43;;;12.43;;
68870;SDS011;55906;52.278;6.808;2022-11-20T01:16:44;19.08;;;11.27;;
68870;SDS011;55906;52.278;6.808;2022-11-20T01:19:14;19.58;;;11.63;;
68870;SDS011;55906;52.278;6.808;2022-11-20T01:21:42;19.92;;;12.00;;
68870;SDS011;55906;52.278;6.808;2022-11-20T01:24:11;24.17;;;13.43;;
68870;SDS011;55906;52.278;6.808;2022-11-20T01:26:41;20.20;;;13.15;;
68870;SDS011;55906;52.278;6.808;2022-11-20T01:29:10;22.15;;;12.50;;
68870;SDS011;55906;52.278;6.808;2022-11-20T01:31:40;19.63;;;12.57;;
68870;SDS011;55906;52.278;6.808;2022-11-20T01:34:09;19.30;;;12.18;;
68870;SDS011;55906;52.278;6.808;2022-11-20T01:36:37;23.08;;;13.32;;
68870;SDS011;55906;52.278;6.808;2022-11-20T01:39:05;29.93;;;16.57;;
68870;SDS011;55906;52.278;6.808;2022-11-20T01:41:34;26.40;;;14.98;;
68870;SDS011;55906;52.278;6.808;2022-11-20T01:44:20;22.88;;;12.85;;
68870;SDS011;55906;52.278;6.808;2022-11-20T01:46:52;23.88;;;14.00;;
68870;SDS011;55906;52.278;6.808;2022-11-20T01:49:23;22.33;;;13.30;;
68870;SDS011;55906;52.278;6.808;2022-11-20T01:51:54;23.52;;;13.70;;
68870;SDS011;55906;52.278;6.808;2022-11-20T01:54:25;21.20;;;11.80;;
68870;SDS011;55906;52.278;6.808;2022-11-20T01:56:57;20.00;;;11.60;;
68870;SDS011;55906;52.278;6.808;2022-11-20T01:59:28;16.85;;;10.35;;
68870;SDS011;55906;52.278;6.808;2022-11-20T02:01:56;16.52;;;10.90;;
68870;SDS011;55906;52.278;6.808;2022-11-20T02:04:23;17.73;;;10.97;;
68870;SDS011;55906;52.278;6.808;2022-11-20T02:06:51;21.05;;;12.18;;
68870;SDS011;55906;52.278;6.808;2022-11-20T02:09:24;17.67;;;11.15;;
68870;SDS011;55906;52.278;6.808;2022-11-20T02:11:50;17.52;;;10.77;;
68870;SDS011;55906;52.278;6.808;2022-11-20T02:14:17;18.10;;;10.52;;
68870;SDS011;55906;52.278;6.808;2022-11-20T02:16:45;17.35;;;11.40;;
68870;SDS011;55906;52.278;6.808;2022-11-20T02:19:15;20.40;;;11.27;;
68870;SDS011;55906;52.278;6.808;2022-11-20T02:21:50;18.48;;;11.30;;
68870;SDS011;55906;52.278;6.808;2022-11-20T02:24:25;18.30;;;11.23;;
68870;SDS011;55906;52.278;6.808;2022-11-20T02:26:53;18.25;;;11.25;;
68870;SDS011;55906;52.278;6.808;2022-11-20T02:29:23;18.67;;;10.90;;
68870;SDS011;55906;52.278;6.808;2022-11-20T02:31:52;18.85;;;11.48;;
68870;SDS011;55906;52.278;6.808;2022-11-20T02:34:21;18.13;;;11.13;;
68870;SDS011;55906;52.278;6.808;2022-11-20T02:36:47;18.17;;;10.93;;
68870;SDS011;55906;52.278;6.808;2022-11-20T02:39:15;18.92;;;12.52;;
68870;SDS011;55906;52.278;6.808;2022-11-20T02:41:44;19.70;;;12.32;;
68870;SDS011;55906;52.278;6.808;2022-11-20T02:44:10;21.53;;;12.53;;
68870;SDS011;55906;52.278;6.808;2022-11-20T02:46:37;17.73;;;12.38;;
68870;SDS011;55906;52.278;6.808;2022-11-20T02:49:04;18.17;;;11.27;;
68870;SDS011;55906;52.278;6.808;2022-11-20T02:51:31;18.90;;;11.70;;
68870;SDS011;55906;52.278;6.808;2022-11-20T02:53:58;18.10;;;11.38;;
68870;SDS011;55906;52.278;6.808;2022-11-20T02:56:25;18.88;;;10.68;;
68870;SDS011;55906;52.278;6.808;2022-11-20T02:58:53;17.98;;;11.65;;
68870;SDS011;55906;52.278;6.808;2022-11-20T03:01:20;18.70;;;10.90;;
68870;SDS011;55906;52.278;6.808;2022-11-20T03:03:47;18.20;;;11.60;;
68870;SDS011;55906;52.278;6.808;2022-11-20T03:06:14;18.35;;;10.80;;
68870;SDS011;55906;52.278;6.808;2022-11-20T03:08:41;21.57;;;11.00;;
68870;SDS011;55906;52.278;6.808;2022-11-20T03:11:08;18.15;;;10.95;;
68870;SDS011;55906;52.278;6.808;2022-11-20T03:13:36;16.23;;;10.15;;
68870;SDS011;55906;52.278;6.808;2022-11-20T03:16:11;15.85;;;10.82;;
68870;SDS011;55906;52.278;6.808;2022-11-20T03:18:39;18.98;;;10.10;;
68870;SDS011;55906;52.278;6.808;2022-11-20T03:21:06;15.15;;;9.82;;
68870;SDS011;55906;52.278;6.808;2022-11-20T03:23:34;15.52;;;11.07;;
68870;SDS011;55906;52.278;6.808;2022-11-20T03:26:08;16.50;;;10.27;;
68870;SDS011;55906;52.278;6.808;2022-11-20T03:28:35;13.25;;;9.93;;
68870;SDS011;55906;52.278;6.808;2022-11-20T03:31:06;17.17;;;11.13;;
68870;SDS011;55906;52.278;6.808;2022-11-20T03:33:35;17.90;;;9.93;;
68870;SDS011;55906;52.278;6.808;2022-11-20T03:36:02;15.20;;;10.38;;
68870;SDS011;55906;52.278;6.808;2022-11-20T03:38:29;17.83;;;11.98;;
68870;SDS011;55906;52.278;6.808;2022-11-20T03:41:00;18.63;;;12.23;;
68870;SDS011;55906;52.278;6.808;2022-11-20T03:43:28;17.00;;;10.82;;
68870;SDS011;55906;52.278;6.808;2022-11-20T03:45:55;16.80;;;10.70;;
68870;SDS011;55906;52.278;6.808;2022-11-20T03:48:22;16.55;;;10.68;;
68870;SDS011;55906;52.278;6.808;2022-11-20T03:50:49;17.80;;;11.57;;
68870;SDS011;55906;52.278;6.808;2022-11-20T03:53:16;17.17;;;10.63;;
68870;SDS011;55906;52.278;6.808;2022-11-20T03:55:43;17.80;;;10.25;;
68870;SDS011;55906;52.278;6.808;2022-11-20T03:58:10;15.57;;;10.57;;
68870;SDS011;55906;52.278;6.808;2022-11-20T04:00:38;15.98;;;10.07;;
68870;SDS011;55906;52.278;6.808;2022-11-20T04:03:05;15.57;;;10.40;;
68870;SDS011;55906;52.278;6.808;2022-11-20T04:05:32;17.02;;;9.77;;
68870;SDS011;55906;52.278;6.808;2022-11-20T04:08:00;14.75;;;9.60;;
68870;SDS011;55906;52.278;6.808;2022-11-20T04:10:27;16.42;;;10.52;;
68870;SDS011;55906;52.278;6.808;2022-11-20T04:12:53;17.30;;;9.80;;
68870;SDS011;55906;52.278;6.808;2022-11-20T04:15:20;16.97;;;10.93;;
68870;SDS011;55906;52.278;6.808;2022-11-20T04:17:47;20.35;;;11.60;;
68870;SDS011;55906;52.278;6.808;2022-11-20T04:20:13;15.40;;;9.40;;
68870;SDS011;55906;52.278;6.808;2022-11-20T04:22:40;18.53;;;10.30;;
68870;SDS011;55906;52.278;6.808;2022-11-20T04:25:08;19.58;;;11.02;;
68870;SDS011;55906;52.278;6.808;2022-11-20T04:27:35;16.15;;;10.15;;
68870;SDS011;55906;52.278;6.808;2022-11-20T04:30:02;13.60;;;9.55;;
68870;SDS011;55906;52.278;6.808;2022-11-20T04:32:29;17.00;;;10.15;;
68870;SDS011;55906;52.278;6.808;2022-11-20T04:34:55;19.77;;;11.07;;
68870;SDS011;55906;52.278;6.808;2022-11-20T04:37:22;16.30;;;9.77;;
68870;SDS011;55906;52.278;6.808;2022-11-20T04:39:48;20.63;;;10.93;;
68870;SDS011;55906;52.278;6.808;2022-11-20T04:42:16;13.60;;;9.40;;
68870;SDS011;55906;52.278;6.808;2022-11-20T04:44:55;12.35;;;8.80;;
68870;SDS011;55906;52.278;6.808;2022-11-20T04:47:22;15.60;;;9.70;;
68870;SDS011;55906;52.278;6.808;2022-11-20T04:49:49;13.05;;;8.38;;
68870;SDS011;55906;52.278;6.808;2022-11-20T04:52:15;14.60;;;9.27;;
68870;SDS011;55906;52.278;6.808;2022-11-20T04:54:42;16.52;;;10.25;;
68870;SDS011;55906;52.278;6.808;2022-11-20T04:57:08;14.88;;;9.20;;
68870;SDS011;55906;52.278;6.808;2022-11-20T04:59:36;15.93;;;9.75;;
68870;SDS011;55906;52.278;6.808;2022-11-20T05:02:03;16.00;;;9.25;;
68870;SDS011;55906;52.278;6.808;2022-11-20T05:04:29;14.47;;;9.20;;
68870;SDS011;55906;52.278;6.808;2022-11-20T05:06:56;15.00;;;10.38;;
68870;SDS011;55906;52.278;6.808;2022-11-20T05:09:23;14.07;;;9.07;;
68870;SDS011;55906;52.278;6.808;2022-11-20T05:11:49;16.00;;;9.60;;
68870;SDS011;55906;52.278;6.808;2022-11-20T05:14:16;15.52;;;9.55;;
68870;SDS011;55906;52.278;6.808;2022-11-20T05:16:43;14.93;;;8.75;;
68870;SDS011;55906;52.278;6.808;2022-11-20T05:19:10;16.35;;;12.00;;
68870;SDS011;55906;52.278;6.808;2022-11-20T05:21:37;12.63;;;8.13;;
68870;SDS011;55906;52.278;6.808;2022-11-20T05:24:03;15.82;;;10.23;;
68870;SDS011;55906;52.278;6.808;2022-11-20T05:26:30;13.82;;;9.80;;
68870;SDS011;55906;52.278;6.808;2022-11-20T05:28:57;13.80;;;8.83;;
68870;SDS011;55906;52.278;6.808;2022-11-20T05:31:24;17.27;;;9.75;;
68870;SDS011;55906;52.278;6.808;2022-11-20T05:33:52;13.93;;;9.15;;
68870;SDS011;55906;52.278;6.808;2022-11-20T05:36:19;15.90;;;10.33;;
68870;SDS011;55906;52.278;6.808;2022-11-20T05:38:46;17.25;;;10.13;;
68870;SDS011;55906;52.278;6.808;2022-11-20T05:41:13;15.45;;;9.65;;
68870;SDS011;55906;52.278;6.808;2022-11-20T05:43:41;17.60;;;11.07;;
68870;SDS011;55906;52.278;6.808;2022-11-20T05:46:10;15.90;;;9.57;;
68870;SDS011;55906;52.278;6.808;2022-11-20T05:48:39;17.08;;;9.95;;
68870;SDS011;55906;52.278;6.808;2022-11-20T05:51:08;16.88;;;10.25;;
68870;SDS011;55906;52.278;6.808;2022-11-20T05:53:36;16.13;;;9.37;;
68870;SDS011;55906;52.278;6.808;2022-11-20T05:56:04;13.90;;;9.27;;
68870;SDS011;55906;52.278;6.808;2022-11-20T05:58:32;18.45;;;9.45;;
68870;SDS011;55906;52.278;6.808;2022-11-20T06:01:03;13.90;;;9.13;;
68870;SDS011;55906;52.278;6.808;2022-11-20T06:03:31;12.05;;;8.02;;
68870;SDS011;55906;52.278;6.808;2022-11-20T06:05:58;11.75;;;8.38;;
68870;SDS011;55906;52.278;6.808;2022-11-20T06:08:26;13.07;;;8.90;;
68870;SDS011;55906;52.278;6.808;2022-11-20T06:10:53;14.30;;;8.95;;
68870;SDS011;55906;52.278;6.808;2022-11-20T06:13:19;19.05;;;10.50;;
68870;SDS011;55906;52.278;6.808;2022-11-20T06:15:48;15.55;;;9.70;;
68870;SDS011;55906;52.278;6.808;2022-11-20T06:18:15;16.27;;;10.23;;
68870;SDS011;55906;52.278;6.808;2022-11-20T06:20:41;14.80;;;9.13;;
68870;SDS011;55906;52.278;6.808;2022-11-20T06:23:08;13.18;;;9.75;;
68870;SDS011;55906;52.278;6.808;2022-11-20T06:25:38;13.07;;;8.97;;
68870;SDS011;55906;52.278;6.808;2022-11-20T06:28:05;14.48;;;9.27;;
68870;SDS011;55906;52.278;6.808;2022-11-20T06:30:32;14.85;;;9.70;;
68870;SDS011;55906;52.278;6.808;2022-11-20T06:32:58;14.02;;;9.05;;
68870;SDS011;55906;52.278;6.808;2022-11-20T06:35:25;10.77;;;8.07;;
68870;SDS011;55906;52.278;6.808;2022-11-20T06:37:52;15.13;;;9.77;;
68870;SDS011;55906;52.278;6.808;2022-11-20T06:40:18;12.65;;;8.55;;
68870;SDS011;55906;52.278;6.808;2022-11-20T06:42:46;12.03;;;8.00;;
68870;SDS011;55906;52.278;6.808;2022-11-20T06:45:13;13.45;;;8.90;;
68870;SDS011;55906;52.278;6.808;2022-11-20T06:47:39;13.30;;;8.63;;
68870;SDS011;55906;52.278;6.808;2022-11-20T06:50:06;12.53;;;9.47;;
68870;SDS011;55906;52.278;6.808;2022-11-20T06:52:33;13.90;;;8.98;;
68870;SDS011;55906;52.278;6.808;2022-11-20T06:55:00;13.63;;;8.85;;
68870;SDS011;55906;52.278;6.808;2022-11-20T06:57:26;13.63;;;8.90;;
68870;SDS011;55906;52.278;6.808;2022-11-20T06:59:54;14.73;;;8.80;;
68870;SDS011;55906;52.278;6.808;2022-11-20T07:02:21;13.80;;;9.05;;
68870;SDS011;55906;52.278;6.808;2022-11-20T07:04:48;14.85;;;9.60;;
68870;SDS011;55906;52.278;6.808;2022-11-20T07:07:14;13.50;;;9.20;;
68870;SDS011;55906;52.278;6.808;2022-11-20T07:09:41;13.30;;;8.95;;
68870;SDS011;55906;52.278;6.808;2022-11-20T07:12:07;14.75;;;8.57;;
68870;SDS011;55906;52.278;6.808;2022-11-20T07:14:34;17.97;;;10.97;;
68870;SDS011;55906;52.278;6.808;2022-11-20T07:17:02;18.17;;;10.45;;
68870;SDS011;55906;52.278;6.808;2022-11-20T07:19:29;14.20;;;9.43;;
68870;SDS011;55906;52.278;6.808;2022-11-20T07:21:56;16.23;;;9.80;;
68870;SDS011;55906;52.278;6.808;2022-11-20T07:24:22;13.48;;;8.57;;
68870;SDS011;55906;52.278;6.808;2022-11-20T07:26:49;15.40;;;9.20;;
68870;SDS011;55906;52.278;6.808;2022-11-20T07:29:16;15.73;;;10.10;;
68870;SDS011;55906;52.278;6.808;2022-11-20T07:31:43;18.13;;;10.63;;
68870;SDS011;55906;52.278;6.808;2022-11-20T07:34:11;16.95;;;10.50;;
68870;SDS011;55906;52.278;6.808;2022-11-20T07:36:37;16.63;;;10.40;;
68870;SDS011;55906;52.278;6.808;2022-11-20T07:39:04;25.90;;;12.83;;
68870;SDS011;55906;52.278;6.808;2022-11-20T07:41:31;21.15;;;12.88;;
68870;SDS011;55906;52.278;6.808;2022-11-20T07:43:57;23.30;;;14.20;;
68870;SDS011;55906;52.278;6.808;2022-11-20T07:46:24;30.15;;;19.05;;
68870;SDS011;55906;52.278;6.808;2022-11-20T07:48:50;44.05;;;26.98;;
68870;SDS011;55906;52.278;6.808;2022-11-20T07:51:18;63.88;;;27.60;;
68870;SDS011;55906;52.278;6.808;2022-11-20T07:53:45;52.28;;;25.20;;
68870;SDS011;55906;52.278;6.808;2022-11-20T07:56:11;36.97;;;19.63;;
68870;SDS011;55906;52.278;6.808;2022-11-20T07:58:39;32.30;;;18.17;;
68870;SDS011;55906;52.278;6.808;2022-11-20T08:01:06;31.25;;;17.20;;
68870;SDS011;55906;52.278;6.808;2022-11-20T08:03:34;27.17;;;17.07;;
68870;SDS011;55906;52.278;6.808;2022-11-20T08:06:02;22.50;;;14.02;;
68870;SDS011;55906;52.278;6.808;2022-11-20T08:08:30;24.35;;;14.50;;
68870;SDS011;55906;52.278;6.808;2022-11-20T08:10:57;23.48;;;14.38;;
68870;SDS011;55906;52.278;6.808;2022-11-20T08:13:45;24.80;;;15.55;;
68870;SDS011;55906;52.278;6.808;2022-11-20T08:16:29;28.88;;;17.30;;
68870;SDS011;55906;52.278;6.808;2022-11-20T08:18:55;26.25;;;16.38;;
68870;SDS011;55906;52.278;6.808;2022-11-20T08:21:22;23.80;;;15.37;;
68870;SDS011;55906;52.278;6.808;2022-11-20T08:23:50;25.42;;;18.10;;
68870;SDS011;55906;52.278;6.808;2022-11-20T08:26:17;23.90;;;16.55;;
68870;SDS011;55906;52.278;6.808;2022-11-20T08:28:43;30.70;;;18.37;;
68870;SDS011;55906;52.278;6.808;2022-11-20T08:31:10;26.35;;;16.70;;
68870;SDS011;55906;52.278;6.808;2022-11-20T08:33:37;26.48;;;16.13;;
68870;SDS011;55906;52.278;6.808;2022-11-20T08:36:04;22.63;;;14.98;;
68870;SDS011;55906;52.278;6.808;2022-11-20T08:38:32;26.83;;;16.80;;
68870;SDS011;55906;52.278;6.808;2022-11-20T08:41:00;26.33;;;17.55;;
68870;SDS011;55906;52.278;6.808;2022-11-20T08:43:46;24.35;;;15.35;;
68870;SDS011;55906;52.278;6.808;2022-11-20T08:46:13;26.83;;;16.67;;
68870;SDS011;55906;52.278;6.808;2022-11-20T08:48:40;23.63;;;15.85;;
68870;SDS011;55906;52.278;6.808;2022-11-20T08:51:07;28.77;;;17.40;;
68870;SDS011;55906;52.278;6.808;2022-11-20T08:53:34;23.65;;;16.17;;
68870;SDS011;55906;52.278;6.808;2022-11-20T08:56:02;21.10;;;15.02;;
68870;SDS011;55906;52.278;6.808;2022-11-20T08:58:29;21.75;;;14.40;;
68870;SDS011;55906;52.278;6.808;2022-11-20T09:00:56;27.45;;;17.17;;
68870;SDS011;55906;52.278;6.808;2022-11-20T09:03:22;22.40;;;15.00;;
68870;SDS011;55906;52.278;6.808;2022-11-20T09:05:56;22.98;;;16.23;;
68870;SDS011;55906;52.278;6.808;2022-11-20T09:08:24;22.98;;;15.70;;
68870;SDS011;55906;52.278;6.808;2022-11-20T09:10:51;24.13;;;15.82;;
68870;SDS011;55906;52.278;6.808;2022-11-20T09:13:19;22.60;;;17.30;;
68870;SDS011;55906;52.278;6.808;2022-11-20T09:15:46;25.47;;;17.17;;
68870;SDS011;55906;52.278;6.808;2022-11-20T09:18:12;24.73;;;16.52;;
68870;SDS011;55906;52.278;6.808;2022-11-20T09:20:39;23.02;;;15.70;;
68870;SDS011;55906;52.278;6.808;2022-11-20T09:23:06;23.27;;;16.10;;
68870;SDS011;55906;52.278;6.808;2022-11-20T09:25:32;21.98;;;14.70;;
68870;SDS011;55906;52.278;6.808;2022-11-20T09:27:59;22.10;;;14.60;;
68870;SDS011;55906;52.278;6.808;2022-11-20T09:30:27;19.90;;;13.10;;
68870;SDS011;55906;52.278;6.808;2022-11-20T09:32:54;17.50;;;12.60;;
68870;SDS011;55906;52.278;6.808;2022-11-20T09:35:21;20.98;;;14.45;;
68870;SDS011;55906;52.278;6.808;2022-11-20T09:37:48;21.92;;;15.15;;
68870;SDS011;55906;52.278;6.808;2022-11-20T09:40:17;21.47;;;15.07;;
68870;SDS011;55906;52.278;6.808;2022-11-20T09:42:47;23.23;;;15.93;;
68870;SDS011;55906;52.278;6.808;2022-11-20T09:45:23;23.50;;;16.05;;
68870;SDS011;55906;52.278;6.808;2022-11-20T09:48:03;26.10;;;17.17;;
68870;SDS011;55906;52.278;6.808;2022-11-20T09:50:42;23.25;;;15.73;;
68870;SDS011;55906;52.278;6.808;2022-11-20T09:53:13;20.40;;;14.60;;
68870;SDS011;55906;52.278;6.808;2022-11-20T09:55:46;19.63;;;14.73;;
68870;SDS011;55906;52.278;6.808;2022-11-20T09:58:15;23.10;;;15.73;;
68870;SDS011;55906;52.278;6.808;2022-11-20T10:00:50;22.15;;;15.50;;
68870;SDS011;55906;52.278;6.808;2022-11-20T10:03:22;19.83;;;14.70;;
68870;SDS011;55906;52.278;6.808;2022-11-20T10:06:02;20.20;;;14.83;;
68870;SDS011;55906;52.278;6.808;2022-11-20T10:08:32;20.80;;;15.55;;
68870;SDS011;55906;52.278;6.808;2022-11-20T10:11:08;20.58;;;15.07;;
68870;SDS011;55906;52.278;6.808;2022-11-20T10:13:44;20.02;;;14.25;;
68870;SDS011;55906;52.278;6.808;2022-11-20T10:16:25;20.88;;;15.73;;
68870;SDS011;55906;52.278;6.808;2022-11-20T10:19:10;20.70;;;15.03;;
68870;SDS011;55906;52.278;6.808;2022-11-20T10:21:53;18.10;;;13.60;;
68870;SDS011;55906;52.278;6.808;2022-11-20T10:24:36;20.30;;;15.02;;
68870;SDS011;55906;52.278;6.808;2022-11-20T10:27:11;19.00;;;13.93;;
68870;SDS011;55906;52.278;6.808;2022-11-20T10:29:54;18.83;;;13.93;;
68870;SDS011;55906;52.278;6.808;2022-11-20T10:32:30;20.73;;;15.30;;
68870;SDS011;55906;52.278;6.808;2022-11-20T10:35:04;17.92;;;13.48;;
68870;SDS011;55906;52.278;6.808;2022-11-20T10:37:37;17.73;;;13.02;;
68870;SDS011;55906;52.278;6.808;2022-11-20T10:40:17;19.42;;;14.52;;
68870;SDS011;55906;52.278;6.808;2022-11-20T10:42:49;18.77;;;14.20;;
68870;SDS011;55906;52.278;6.808;2022-11-20T10:45:22;17.87;;;12.57;;
68870;SDS011;55906;52.278;6.808;2022-11-20T10:48:07;16.08;;;12.07;;
68870;SDS011;55906;52.278;6.808;2022-11-20T10:50:40;16.77;;;12.82;;
68870;SDS011;55906;52.278;6.808;2022-11-20T10:53:17;19.08;;;13.82;;
68870;SDS011;55906;52.278;6.808;2022-11-20T10:55:58;17.48;;;12.60;;
68870;SDS011;55906;52.278;6.808;2022-11-20T10:58:32;18.57;;;13.37;;
68870;SDS011;55906;52.278;6.808;2022-11-20T11:01:13;16.98;;;12.68;;
68870;SDS011;55906;52.278;6.808;2022-11-20T11:03:42;16.80;;;12.65;;
68870;SDS011;55906;52.278;6.808;2022-11-20T11:06:10;16.85;;;12.50;;
68870;SDS011;55906;52.278;6.808;2022-11-20T11:08:43;18.20;;;13.30;;
68870;SDS011;55906;52.278;6.808;2022-11-20T11:11:18;19.23;;;14.23;;
68870;SDS011;55906;52.278;6.808;2022-11-20T11:13:48;18.85;;;13.00;;
68870;SDS011;55906;52.278;6.808;2022-11-20T11:16:22;18.98;;;13.43;;
68870;SDS011;55906;52.278;6.808;2022-11-20T11:18:51;19.33;;;14.68;;
68870;SDS011;55906;52.278;6.808;2022-11-20T11:21:29;19.08;;;13.40;;
68870;SDS011;55906;52.278;6.808;2022-11-20T11:23:59;21.33;;;15.10;;
68870;SDS011;55906;52.278;6.808;2022-11-20T11:26:27;23.38;;;14.50;;
68870;SDS011;55906;52.278;6.808;2022-11-20T11:28:55;21.75;;;14.93;;
68870;SDS011;55906;52.278;6.808;2022-11-20T11:31:23;24.00;;;15.32;;
68870;SDS011;55906;52.278;6.808;2022-11-20T11:33:52;22.77;;;15.20;;
68870;SDS011;55906;52.278;6.808;2022-11-20T11:36:29;23.10;;;15.47;;
68870;SDS011;55906;52.278;6.808;2022-11-20T11:38:57;21.98;;;14.40;;
68870;SDS011;55906;52.278;6.808;2022-11-20T11:41:24;21.33;;;14.68;;
68870;SDS011;55906;52.278;6.808;2022-11-20T11:43:58;21.17;;;14.20;;
68870;SDS011;55906;52.278;6.808;2022-11-20T11:46:49;18.25;;;13.13;;
68870;SDS011;55906;52.278;6.808;2022-11-20T11:49:21;21.03;;;14.17;;
68870;SDS011;55906;52.278;6.808;2022-11-20T11:51:54;21.42;;;14.73;;
68870;SDS011;55906;52.278;6.808;2022-11-20T11:54:30;21.35;;;15.20;;
68870;SDS011;55906;52.278;6.808;2022-11-20T11:57:01;18.88;;;14.02;;
68870;SDS011;55906;52.278;6.808;2022-11-20T11:59:39;19.75;;;13.75;;
68870;SDS011;55906;52.278;6.808;2022-11-20T12:02:15;17.23;;;12.67;;
68870;SDS011;55906;52.278;6.808;2022-11-20T12:04:56;19.38;;;13.27;;
68870;SDS011;55906;52.278;6.808;2022-11-20T12:07:31;20.65;;;14.23;;
68870;SDS011;55906;52.278;6.808;2022-11-20T12:10:06;19.13;;;14.60;;
68870;SDS011;55906;52.278;6.808;2022-11-20T12:12:42;17.90;;;13.30;;
68870;SDS011;55906;52.278;6.808;2022-11-20T12:15:12;19.77;;;14.30;;
68870;SDS011;55906;52.278;6.808;2022-11-20T12:17:47;17.23;;;12.40;;
68870;SDS011;55906;52.278;6.808;2022-11-20T12:20:15;14.60;;;10.82;;
68870;SDS011;55906;52.278;6.808;2022-11-20T12:22:44;13.82;;;9.52;;
68870;SDS011;55906;52.278;6.808;2022-11-20T12:25:19;17.52;;;10.93;;
68870;SDS011;55906;52.278;6.808;2022-11-20T12:27:52;13.27;;;9.60;;
68870;SDS011;55906;52.278;6.808;2022-11-20T12:30:41;14.05;;;9.98;;
68870;SDS011;55906;52.278;6.808;2022-11-20T12:36:18;14.15;;;9.30;;
68870;SDS011;55906;52.278;6.808;2022-11-20T12:39:07;13.52;;;9.90;;
68870;SDS011;55906;52.278;6.808;2022-11-20T12:41:51;14.70;;;9.57;;
68870;SDS011;55906;52.278;6.808;2022-11-20T12:45:00;14.27;;;9.52;;
68870;SDS011;55906;52.278;6.808;2022-11-20T12:47:39;15.80;;;10.65;;
68870;SDS011;55906;52.278;6.808;2022-11-20T12:50:28;17.00;;;11.18;;
68870;SDS011;55906;52.278;6.808;2022-11-20T12:53:05;15.60;;;10.38;;
68870;SDS011;55906;52.278;6.808;2022-11-20T12:55:40;14.57;;;10.37;;
68870;SDS011;55906;52.278;6.808;2022-11-20T12:58:15;16.27;;;10.95;;
68870;SDS011;55906;52.278;6.808;2022-11-20T13:00:50;17.40;;;11.98;;
68870;SDS011;55906;52.278;6.808;2022-11-20T13:03:31;16.38;;;10.50;;
68870;SDS011;55906;52.278;6.808;2022-11-20T13:06:05;15.83;;;10.67;;
68870;SDS011;55906;52.278;6.808;2022-11-20T13:08:39;17.48;;;10.85;;
68870;SDS011;55906;52.278;6.808;2022-11-20T13:11:09;16.75;;;10.65;;
68870;SDS011;55906;52.278;6.808;2022-11-20T13:13:46;16.58;;;10.10;;
68870;SDS011;55906;52.278;6.808;2022-11-20T13:16:28;16.60;;;10.40;;
68870;SDS011;55906;52.278;6.808;2022-11-20T13:19:02;13.77;;;9.55;;
68870;SDS011;55906;52.278;6.808;2022-11-20T13:21:39;15.07;;;10.02;;
68870;SDS011;55906;52.278;6.808;2022-11-20T13:24:20;15.75;;;10.57;;
68870;SDS011;55906;52.278;6.808;2022-11-20T13:27:01;18.03;;;11.17;;
68870;SDS011;55906;52.278;6.808;2022-11-20T13:29:29;17.60;;;10.85;;
68870;SDS011;55906;52.278;6.808;2022-11-20T13:32:02;17.00;;;10.57;;
68870;SDS011;55906;52.278;6.808;2022-11-20T13:34:30;17.30;;;10.77;;
68870;SDS011;55906;52.278;6.808;2022-11-20T13:36:58;15.43;;;9.77;;
68870;SDS011;55906;52.278;6.808;2022-11-20T13:39:30;18.63;;;10.93;;
68870;SDS011;55906;52.278;6.808;2022-11-20T13:41:58;14.05;;;9.75;;
68870;SDS011;55906;52.278;6.808;2022-11-20T13:44:29;19.13;;;11.40;;
68870;SDS011;55906;52.278;6.808;2022-11-20T13:47:03;17.57;;;9.77;;
68870;SDS011;55906;52.278;6.808;2022-11-20T13:49:31;17.92;;;10.38;;
68870;SDS011;55906;52.278;6.808;2022-11-20T13:52:04;18.95;;;11.15;;
68870;SDS011;55906;52.278;6.808;2022-11-20T13:55:00;16.38;;;10.80;;
68870;SDS011;55906;52.278;6.808;2022-11-20T13:57:53;23.13;;;12.23;;
68870;SDS011;55906;52.278;6.808;2022-11-20T14:00:30;21.48;;;12.85;;
68870;SDS011;55906;52.278;6.808;2022-11-20T14:03:07;21.55;;;13.43;;
68870;SDS011;55906;52.278;6.808;2022-11-20T14:05:38;22.25;;;13.18;;
68870;SDS011;55906;52.278;6.808;2022-11-20T14:08:11;22.37;;;13.37;;
68870;SDS011;55906;52.278;6.808;2022-11-20T14:10:45;21.35;;;13.02;;
68870;SDS011;55906;52.278;6.808;2022-11-20T14:13:15;19.15;;;12.60;;
68870;SDS011;55906;52.278;6.808;2022-11-20T14:15:44;19.08;;;12.05;;
68870;SDS011;55906;52.278;6.808;2022-11-20T14:18:12;19.97;;;12.73;;
68870;SDS011;55906;52.278;6.808;2022-11-20T14:20:40;22.33;;;13.20;;
68870;SDS011;55906;52.278;6.808;2022-11-20T14:23:09;24.48;;;14.32;;
68870;SDS011;55906;52.278;6.808;2022-11-20T14:25:36;23.38;;;14.18;;
68870;SDS011;55906;52.278;6.808;2022-11-20T14:28:05;20.97;;;13.20;;
68870;SDS011;55906;52.278;6.808;2022-11-20T14:30:36;20.50;;;12.38;;
68870;SDS011;55906;52.278;6.808;2022-11-20T14:33:09;22.90;;;13.23;;
68870;SDS011;55906;52.278;6.808;2022-11-20T14:35:40;23.75;;;14.27;;
68870;SDS011;55906;52.278;6.808;2022-11-20T14:38:12;25.37;;;13.60;;
68870;SDS011;55906;52.278;6.808;2022-11-20T14:40:41;22.35;;;12.45;;
68870;SDS011;55906;52.278;6.808;2022-11-20T14:43:17;26.98;;;14.35;;